createdAt,value
2022-11-07T00:01:54.342Z,75.20
2022-11-07T00:04:22.935Z,75.24
2022-11-07T00:06:51.517Z,75.16
2022-11-07T00:09:20.102Z,75.20
2022-11-07T00:11:48.584Z,75.13
2022-11-07T00:14:17.988Z,75.09
2022-11-07T00:16:46.982Z,75.15
2022-11-07T00:19:17.095Z,74.89
2022-11-07T00:21:45.789Z,74.83
2022-11-07T00:24:14.991Z,74.91
2022-11-07T00:26:44.291Z,74.86
2022-11-07T00:29:16.260Z,74.85
2022-11-07T00:31:44.735Z,74.74
2022-11-07T00:34:13.219Z,74.87
2022-11-07T00:36:41.915Z,74.89
2022-11-07T00:39:11.322Z,74.68
2022-11-07T00:41:39.687Z,74.81
2022-11-07T00:44:08.274Z,74.59
2022-11-07T00:46:36.958Z,74.66
2022-11-07T00:49:05.236Z,74.68
2022-11-07T00:51:33.719Z,74.58
2022-11-07T00:54:03.512Z,74.49
2022-11-07T00:56:31.910Z,74.51
2022-11-07T00:59:00.473Z,74.36
2022-11-07T01:01:30.340Z,74.44
2022-11-07T01:04:17.916Z,74.48
2022-11-07T01:06:47.242Z,74.49
2022-11-07T01:09:20.027Z,74.44
2022-11-07T01:11:48.916Z,74.36
2022-11-07T01:14:18.423Z,74.34
2022-11-07T01:16:47.791Z,74.30
2022-11-07T01:19:16.411Z,74.06
2022-11-07T01:21:45.100Z,74.10
2022-11-07T01:24:14.299Z,74.09
2022-11-07T01:26:44.079Z,73.98
2022-11-07T01:29:12.491Z,73.94
2022-11-07T01:31:41.589Z,73.81
2022-11-07T01:34:10.173Z,73.59
2022-11-07T01:36:38.659Z,73.80
2022-11-07T01:39:06.960Z,73.58
2022-11-07T01:41:37.666Z,73.45
2022-11-07T01:44:09.529Z,73.50
2022-11-07T01:46:42.179Z,73.36
2022-11-07T01:49:17.863Z,73.37
2022-11-07T01:51:49.059Z,73.22
2022-11-07T01:54:19.558Z,73.27
2022-11-07T01:56:48.804Z,73.28
2022-11-07T01:59:20.594Z,73.27
2022-11-07T02:01:51.008Z,73.24
2022-11-07T02:04:21.654Z,73.36
2022-11-07T02:06:57.202Z,73.14
2022-11-07T02:09:26.011Z,73.16
2022-11-07T02:11:54.268Z,73.23
2022-11-07T02:14:22.648Z,73.13
2022-11-07T02:16:51.505Z,73.13
2022-11-07T02:19:31.902Z,73.25
2022-11-07T02:22:10.015Z,73.21
2022-11-07T02:24:39.112Z,73.14
2022-11-07T02:27:10.762Z,73.11
2022-11-07T02:29:40.472Z,73.05
2022-11-07T02:32:10.443Z,73.00
2022-11-07T02:34:39.283Z,73.07
2022-11-07T02:37:13.561Z,73.20
2022-11-07T02:39:42.492Z,73.06
2022-11-07T02:42:10.973Z,73.15
2022-11-07T02:44:39.222Z,73.13
2022-11-07T02:47:08.346Z,73.43
2022-11-07T02:49:36.831Z,73.30
2022-11-07T02:52:05.209Z,73.46
2022-11-07T02:54:34.102Z,73.47
2022-11-07T02:57:02.378Z,73.48
2022-11-07T02:59:30.655Z,73.47
2022-11-07T03:01:59.938Z,73.68
2022-11-07T03:04:28.486Z,73.81
2022-11-07T03:06:56.921Z,73.80
2022-11-07T03:09:25.506Z,73.76
2022-11-07T03:11:54.195Z,73.76
2022-11-07T03:14:22.719Z,74.07
2022-11-07T03:16:51.259Z,73.97
2022-11-07T03:19:19.946Z,74.08
2022-11-07T03:21:50.271Z,74.38
2022-11-07T03:24:18.958Z,74.31
2022-11-07T03:26:47.443Z,74.43
2022-11-07T03:29:15.925Z,74.56
2022-11-07T03:31:44.508Z,74.67
2022-11-07T03:34:13.067Z,74.78
2022-11-07T03:36:41.574Z,74.54
2022-11-07T03:39:10.262Z,74.55
2022-11-07T03:41:38.745Z,74.65
2022-11-07T03:44:07.688Z,75.04
2022-11-07T03:46:36.119Z,75.12
2022-11-07T03:49:04.804Z,75.31
2022-11-07T03:51:33.285Z,75.37
2022-11-07T03:54:01.871Z,75.18
2022-11-07T03:56:30.863Z,75.29
2022-11-07T03:58:59.145Z,75.39
2022-11-07T04:01:27.692Z,75.38
2022-11-07T04:03:56.797Z,75.21
2022-11-07T04:06:25.101Z,75.20
2022-11-07T04:08:53.377Z,75.37
2022-11-07T04:11:41.316Z,75.30
2022-11-07T04:14:28.333Z,75.38
2022-11-07T04:17:16.073Z,75.90
2022-11-07T04:19:44.754Z,75.88
2022-11-07T04:22:13.236Z,75.82
2022-11-07T04:24:45.766Z,75.65
2022-11-07T04:27:34.263Z,75.17
2022-11-07T04:30:19.530Z,74.68
2022-11-07T04:32:48.842Z,74.21
2022-11-07T04:35:17.547Z,73.82
2022-11-07T04:37:46.266Z,74.00
2022-11-07T04:40:15.209Z,74.19
2022-11-07T04:42:44.411Z,74.54
2022-11-07T04:45:13.607Z,74.86
2022-11-07T04:47:41.885Z,74.93
2022-11-07T04:50:12.214Z,75.01
2022-11-07T04:52:41.102Z,75.50
2022-11-07T04:55:10.609Z,75.40
2022-11-07T04:57:38.987Z,75.39
2022-11-07T05:00:07.981Z,75.59
2022-11-07T05:02:36.415Z,75.72
2022-11-07T05:05:05.047Z,75.87
2022-11-07T05:07:33.836Z,75.99
2022-11-07T05:10:02.216Z,75.76
2022-11-07T05:12:30.596Z,75.96
2022-11-07T05:14:59.864Z,76.03
2022-11-07T05:17:28.330Z,76.13
2022-11-07T05:19:56.864Z,76.17
2022-11-07T05:22:43.981Z,76.12
2022-11-07T05:25:12.874Z,76.49
2022-11-07T05:27:41.355Z,76.73
2022-11-07T05:30:10.901Z,76.81
2022-11-07T05:32:41.457Z,76.84
2022-11-07T05:35:10.187Z,77.00
2022-11-07T05:37:38.456Z,77.14
2022-11-07T05:40:08.143Z,77.09
2022-11-07T05:42:36.546Z,76.89
2022-11-07T05:45:05.279Z,76.55
2022-11-07T05:47:33.820Z,76.24
2022-11-07T05:50:02.612Z,76.28
2022-11-07T05:52:32.120Z,75.94
2022-11-07T05:55:00.598Z,75.66
2022-11-07T05:57:30.203Z,75.47
2022-11-07T05:59:58.605Z,75.16
2022-11-07T06:02:27.560Z,75.22
2022-11-07T06:04:57.700Z,74.77
2022-11-07T06:07:26.078Z,74.43
2022-11-07T06:09:54.764Z,74.10
2022-11-07T06:12:23.246Z,73.86
2022-11-07T06:14:52.044Z,73.32
2022-11-07T06:17:20.584Z,72.90
2022-11-07T06:19:48.937Z,72.49
2022-11-07T06:22:17.353Z,71.72
2022-11-07T06:24:45.964Z,71.19
2022-11-07T06:27:14.547Z,69.56
2022-11-07T06:29:43.061Z,69.33
2022-11-07T06:32:11.689Z,69.16
2022-11-07T06:34:40.302Z,69.14
2022-11-07T06:37:08.615Z,68.89
2022-11-07T06:39:37.368Z,68.39
2022-11-07T06:42:06.156Z,68.09
2022-11-07T06:44:34.435Z,68.09
2022-11-07T06:47:03.094Z,66.42
2022-11-07T06:49:32.013Z,66.27
2022-11-07T06:52:00.393Z,65.81
2022-11-07T06:54:28.893Z,63.98
2022-11-07T06:56:57.563Z,63.80
2022-11-07T06:59:25.942Z,62.81
2022-11-07T07:01:54.353Z,61.41
2022-11-07T07:04:22.804Z,61.51
2022-11-07T07:06:51.286Z,60.54
2022-11-07T07:09:19.769Z,60.01
2022-11-07T07:11:48.482Z,59.84
2022-11-07T07:14:16.850Z,59.80
2022-11-07T07:16:45.524Z,56.90
2022-11-07T07:19:13.907Z,56.17
2022-11-07T07:21:42.284Z,56.61
2022-11-07T07:24:10.968Z,55.83
2022-11-07T07:26:39.350Z,56.22
2022-11-07T07:29:07.629Z,54.91
2022-11-07T07:31:36.317Z,54.86
2022-11-07T07:34:04.795Z,54.67
2022-11-07T07:36:33.482Z,53.54
2022-11-07T07:39:01.967Z,52.94
2022-11-07T07:41:30.755Z,52.76
2022-11-07T07:43:59.136Z,52.65
2022-11-07T07:46:27.617Z,52.94
2022-11-07T07:48:56.509Z,53.11
2022-11-07T07:51:24.888Z,53.23
2022-11-07T07:53:54.089Z,53.89
2022-11-07T07:56:22.673Z,54.35
2022-11-07T07:58:51.256Z,54.33
2022-11-07T08:01:19.853Z,54.85
2022-11-07T08:04:05.018Z,54.50
2022-11-07T08:06:35.921Z,54.12
2022-11-07T08:09:05.046Z,54.66
2022-11-07T08:11:33.430Z,54.58
2022-11-07T08:14:02.224Z,55.19
2022-11-07T08:16:30.808Z,55.10
2022-11-07T08:18:59.188Z,54.57
2022-11-07T08:21:27.771Z,54.75
2022-11-07T08:23:56.867Z,54.08
2022-11-07T08:26:26.371Z,54.43
2022-11-07T08:28:55.441Z,55.21
2022-11-07T08:31:23.930Z,54.92
2022-11-07T08:33:52.345Z,54.76
2022-11-07T08:36:21.429Z,54.61
2022-11-07T08:38:50.012Z,54.59
2022-11-07T08:41:22.128Z,54.68
2022-11-07T08:43:51.553Z,53.79
2022-11-07T08:46:20.174Z,53.55
2022-11-07T08:48:48.464Z,52.50
2022-11-07T08:51:17.031Z,52.20
2022-11-07T08:53:45.616Z,51.99
2022-11-07T08:56:13.996Z,51.59
2022-11-07T08:58:43.502Z,52.74
2022-11-07T09:01:11.928Z,50.86
2022-11-07T09:03:54.670Z,49.96
2022-11-07T09:06:26.638Z,50.54
2022-11-07T09:08:55.149Z,48.49
2022-11-07T09:11:23.654Z,46.34
2022-11-07T09:13:53.339Z,46.76
2022-11-07T09:16:22.431Z,45.22
2022-11-07T09:18:52.558Z,43.72
2022-11-07T09:21:22.861Z,43.46
2022-11-07T09:23:52.291Z,43.09
2022-11-07T09:26:20.672Z,42.82
2022-11-07T09:28:52.285Z,41.19
2022-11-07T09:31:23.772Z,40.09
2022-11-07T09:33:52.568Z,40.27
2022-11-07T09:36:22.481Z,40.47
2022-11-07T09:38:51.177Z,40.23
2022-11-07T09:41:25.961Z,38.38
2022-11-07T09:44:14.656Z,38.11
2022-11-07T09:46:49.462Z,38.49
2022-11-07T09:49:36.911Z,37.07
2022-11-07T09:52:17.991Z,37.41
2022-11-07T09:55:15.764Z,37.62
2022-11-07T09:57:45.369Z,36.31
2022-11-07T10:00:23.376Z,35.66
2022-11-07T10:02:56.363Z,35.38
2022-11-07T10:05:44.917Z,35.47
2022-11-07T10:08:25.903Z,34.91
2022-11-07T10:11:04.309Z,34.16
2022-11-07T10:13:48.048Z,33.79
2022-11-07T10:16:28.717Z,33.63
2022-11-07T10:18:57.413Z,33.48
2022-11-07T10:21:41.261Z,33.03
2022-11-07T10:24:29.184Z,32.40
2022-11-07T10:26:58.699Z,32.40
2022-11-07T10:29:30.041Z,31.34
2022-11-07T10:32:06.000Z,32.13
2022-11-07T10:34:41.343Z,31.32
2022-11-07T10:37:09.824Z,31.45
2022-11-07T10:39:38.307Z,30.72
2022-11-07T10:42:07.405Z,30.11
2022-11-07T10:44:35.887Z,29.14
2022-11-07T10:47:14.203Z,29.03
2022-11-07T10:49:53.332Z,28.83
2022-11-07T10:52:22.378Z,28.65
2022-11-07T10:54:50.910Z,28.13
2022-11-07T10:57:20.622Z,27.51
2022-11-07T10:59:52.181Z,27.31
2022-11-07T11:02:23.796Z,26.15
2022-11-07T11:04:54.775Z,25.96
2022-11-07T11:07:32.883Z,25.80
2022-11-07T11:10:01.638Z,24.82
2022-11-07T11:12:34.273Z,24.81
2022-11-07T11:15:13.896Z,24.44
2022-11-07T11:17:42.585Z,23.90
2022-11-07T11:20:40.966Z,23.25
2022-11-07T11:23:20.302Z,23.32
2022-11-07T11:25:50.200Z,22.95
2022-11-07T11:28:28.434Z,23.10
2022-11-07T11:31:06.130Z,22.97
2022-11-07T11:33:41.130Z,22.72
2022-11-07T11:36:14.459Z,22.29
2022-11-07T11:38:46.429Z,22.54
2022-11-07T11:41:41.328Z,21.95
2022-11-07T11:44:19.030Z,22.23
2022-11-07T11:46:58.480Z,21.45
2022-11-07T11:49:33.397Z,21.13
2022-11-07T11:52:06.286Z,20.85
2022-11-07T11:54:34.958Z,21.25
2022-11-07T11:57:23.436Z,20.86
2022-11-07T11:59:52.210Z,20.67
2022-11-07T12:02:28.129Z,20.55
2022-11-07T12:05:20.004Z,20.30
2022-11-07T12:08:11.706Z,20.52
2022-11-07T12:10:52.300Z,19.91
2022-11-07T12:13:20.781Z,19.99
2022-11-07T12:16:00.014Z,19.50
2022-11-07T12:18:28.700Z,19.25
2022-11-07T12:21:13.669Z,18.99
2022-11-07T12:24:00.827Z,18.55
2022-11-07T12:26:29.477Z,18.40
2022-11-07T12:29:05.435Z,18.53
2022-11-07T12:31:49.041Z,18.52
2022-11-07T12:34:26.400Z,18.52
2022-11-07T12:37:01.499Z,18.65
2022-11-07T12:39:48.517Z,18.63
2022-11-07T12:42:20.154Z,18.63
2022-11-07T12:44:56.161Z,18.79
2022-11-07T12:47:27.348Z,18.70
2022-11-07T12:49:58.627Z,19.06
2022-11-07T12:52:39.704Z,19.19
2022-11-07T12:55:21.918Z,19.01
2022-11-07T12:57:52.406Z,19.09
2022-11-07T13:00:26.022Z,18.84
2022-11-07T13:03:17.294Z,18.87
2022-11-07T13:05:49.032Z,19.03
2022-11-07T13:08:21.078Z,18.87
2022-11-07T13:10:57.042Z,18.87
2022-11-07T13:13:32.591Z,18.68
2022-11-07T13:16:16.177Z,19.04
2022-11-07T13:18:45.123Z,18.51
2022-11-07T13:21:13.607Z,18.93
2022-11-07T13:23:42.086Z,19.41
2022-11-07T13:26:32.909Z,19.23
2022-11-07T13:29:00.129Z,19.47
2022-11-07T13:31:32.132Z,19.44
2022-11-07T13:34:11.229Z,19.58
2022-11-07T13:36:39.733Z,19.81
2022-11-07T13:39:10.463Z,19.91
2022-11-07T13:41:39.149Z,19.52
2022-11-07T13:44:15.820Z,19.82
2022-11-07T13:46:49.609Z,20.36
2022-11-07T13:49:23.745Z,20.95
2022-11-07T13:51:53.421Z,21.37
2022-11-07T13:54:27.774Z,21.48
2022-11-07T13:57:08.442Z,21.91
2022-11-07T13:59:39.894Z,22.02
2022-11-07T14:02:18.553Z,22.45
2022-11-07T14:05:14.794Z,23.08
2022-11-07T14:07:47.122Z,23.53
2022-11-07T14:10:27.586Z,24.06
2022-11-07T14:13:00.778Z,24.80
2022-11-07T14:15:30.180Z,25.68
2022-11-07T14:17:58.768Z,26.35
2022-11-07T14:20:27.454Z,26.80
2022-11-07T14:22:58.194Z,27.45
2022-11-07T14:25:31.143Z,28.05
2022-11-07T14:28:00.485Z,28.94
2022-11-07T14:30:30.740Z,29.52
2022-11-07T14:33:00.987Z,30.33
2022-11-07T14:35:31.272Z,30.87
2022-11-07T14:37:59.941Z,31.34
2022-11-07T14:40:29.140Z,31.98
2022-11-07T14:42:57.622Z,33.04
2022-11-07T14:45:47.190Z,34.31
2022-11-07T14:48:15.712Z,35.25
2022-11-07T14:50:44.965Z,35.14
2022-11-07T14:53:25.036Z,36.37
2022-11-07T14:55:56.304Z,37.49
2022-11-07T14:58:25.893Z,38.50
2022-11-07T15:00:59.463Z,38.36
2022-11-07T15:03:31.972Z,39.04
2022-11-07T15:06:00.452Z,39.78
2022-11-07T15:08:29.965Z,40.27
2022-11-07T15:11:16.514Z,41.40
2022-11-07T15:13:47.608Z,42.51
2022-11-07T15:16:17.578Z,42.95
2022-11-07T15:18:59.320Z,45.55
2022-11-07T15:21:28.825Z,46.48
2022-11-07T15:23:58.025Z,47.36
2022-11-07T15:26:35.055Z,46.79
2022-11-07T15:29:15.064Z,47.31
2022-11-07T15:31:48.780Z,46.83
2022-11-07T15:34:29.037Z,46.72
2022-11-07T15:37:16.857Z,48.14
2022-11-07T15:39:45.877Z,49.60
2022-11-07T15:42:14.337Z,50.69
2022-11-07T15:44:42.815Z,50.40
2022-11-07T15:47:22.361Z,51.44
2022-11-07T15:49:51.248Z,55.03
2022-11-07T15:52:19.733Z,56.82
2022-11-07T15:54:48.114Z,58.04
2022-11-07T15:57:16.799Z,58.06
2022-11-07T15:59:45.589Z,57.15
2022-11-07T16:02:15.974Z,54.17
2022-11-07T16:04:44.599Z,56.56
2022-11-07T16:07:17.178Z,58.62
2022-11-07T16:09:48.992Z,59.62
2022-11-07T16:12:18.817Z,58.24
2022-11-07T16:14:47.547Z,56.43
2022-11-07T16:17:16.947Z,56.35
2022-11-07T16:19:45.937Z,57.48
2022-11-07T16:22:15.455Z,57.95
2022-11-07T16:24:43.713Z,58.51
2022-11-07T16:27:18.927Z,58.29
2022-11-07T16:29:47.713Z,58.55
2022-11-07T16:32:18.521Z,59.30
2022-11-07T16:34:48.195Z,59.31
2022-11-07T16:37:16.882Z,59.58
2022-11-07T16:39:45.147Z,59.12
2022-11-07T16:42:15.589Z,59.73
2022-11-07T16:44:44.427Z,61.73
2022-11-07T16:47:13.942Z,59.85
2022-11-07T16:49:42.949Z,60.52
2022-11-07T16:52:15.382Z,61.24
2022-11-07T16:54:44.549Z,60.91
2022-11-07T16:57:14.876Z,61.39
2022-11-07T16:59:44.792Z,60.73
2022-11-07T17:02:21.189Z,62.17
2022-11-07T17:04:51.075Z,64.95
2022-11-07T17:07:22.181Z,61.97
2022-11-07T17:09:50.661Z,61.57
2022-11-07T17:12:23.484Z,62.45
2022-11-07T17:14:52.890Z,62.30
2022-11-07T17:17:21.575Z,61.87
2022-11-07T17:19:50.309Z,61.48
2022-11-07T17:22:18.640Z,62.46
2022-11-07T17:24:47.636Z,64.13
2022-11-07T17:27:19.496Z,64.60
2022-11-07T17:29:47.773Z,66.50
2022-11-07T17:32:16.254Z,67.41
2022-11-07T17:34:45.151Z,67.26
2022-11-07T17:37:18.033Z,66.04
2022-11-07T17:39:48.635Z,64.58
2022-11-07T17:42:17.248Z,64.75
2022-11-07T17:44:45.529Z,66.35
2022-11-07T17:47:31.213Z,65.75
2022-11-07T17:50:03.592Z,65.74
2022-11-07T17:52:32.056Z,66.81
2022-11-07T17:55:00.959Z,66.51
2022-11-07T17:57:29.541Z,66.44
2022-11-07T17:59:58.130Z,67.47
2022-11-07T18:02:26.905Z,68.22
2022-11-07T18:04:55.296Z,67.60
2022-11-07T18:07:23.674Z,66.44
2022-11-07T18:09:53.277Z,66.75
2022-11-07T18:12:21.560Z,67.25
2022-11-07T18:14:50.017Z,66.38
2022-11-07T18:17:18.626Z,65.83
2022-11-07T18:20:26.738Z,66.07
2022-11-07T18:23:35.259Z,67.25
2022-11-07T18:26:04.048Z,69.67
2022-11-07T18:28:32.572Z,70.75
2022-11-07T18:31:09.784Z,70.01
2022-11-07T18:33:38.200Z,68.51
2022-11-07T18:36:17.638Z,68.85
2022-11-07T18:38:46.223Z,68.79
2022-11-07T18:41:16.700Z,68.45
2022-11-07T18:43:45.336Z,69.40
2022-11-07T18:46:15.181Z,70.10
2022-11-07T18:48:43.994Z,68.90
2022-11-07T18:51:15.391Z,68.34
2022-11-07T18:53:44.489Z,67.85
2022-11-07T18:56:13.788Z,68.11
2022-11-07T18:58:43.355Z,67.92
2022-11-07T19:01:11.630Z,67.39
2022-11-07T19:03:40.566Z,67.48
2022-11-07T19:06:10.929Z,67.76
2022-11-07T19:08:40.295Z,69.34
2022-11-07T19:11:10.316Z,69.16
2022-11-07T19:13:40.741Z,70.79
2022-11-07T19:16:09.940Z,71.34
2022-11-07T19:18:38.305Z,71.92
2022-11-07T19:21:06.902Z,71.85
2022-11-07T19:23:36.100Z,71.30
2022-11-07T19:26:05.093Z,71.65
2022-11-07T19:28:33.782Z,71.76
2022-11-07T19:31:03.185Z,71.52
2022-11-07T19:33:31.575Z,71.41
2022-11-07T19:36:01.284Z,70.87
2022-11-07T19:38:30.882Z,71.19
2022-11-07T19:41:02.391Z,72.07
2022-11-07T19:43:31.536Z,71.37
2022-11-07T19:46:00.122Z,70.69
2022-11-07T19:48:28.395Z,71.21
2022-11-07T19:50:57.252Z,71.47
2022-11-07T19:53:25.565Z,70.57
2022-11-07T19:55:53.944Z,70.85
2022-11-07T19:58:22.910Z,71.18
2022-11-07T20:00:51.364Z,72.05
2022-11-07T20:03:59.838Z,71.57
2022-11-07T20:07:12.996Z,71.65
2022-11-07T20:10:21.283Z,71.85
2022-11-07T20:12:50.177Z,72.67
2022-11-07T20:15:18.557Z,71.98
2022-11-07T20:17:47.037Z,71.74
2022-11-07T20:20:15.620Z,71.55
2022-11-07T20:22:50.674Z,71.12
2022-11-07T20:25:19.242Z,70.62
2022-11-07T20:27:48.030Z,70.94
2022-11-07T20:30:16.526Z,71.69
2022-11-07T20:32:46.021Z,70.69
2022-11-07T20:35:14.500Z,70.97
2022-11-07T20:37:42.941Z,70.69
2022-11-07T20:40:11.536Z,70.57
2022-11-07T20:42:39.843Z,70.67
2022-11-07T20:45:08.735Z,70.54
2022-11-07T20:47:37.729Z,70.67
2022-11-07T20:50:06.723Z,70.65
2022-11-07T20:52:35.515Z,70.40
2022-11-07T20:55:04.301Z,70.92
2022-11-07T20:57:32.887Z,71.87
2022-11-07T21:00:01.368Z,73.36
2022-11-07T21:02:30.093Z,72.49
2022-11-07T21:05:18.330Z,71.16
2022-11-07T21:07:48.727Z,70.89
2022-11-07T21:10:17.212Z,70.69
2022-11-07T21:12:45.899Z,70.59
2022-11-07T21:15:14.584Z,70.32
2022-11-07T21:17:42.963Z,70.65
2022-11-07T21:20:11.752Z,70.96
2022-11-07T21:22:40.280Z,71.03
2022-11-07T21:25:08.987Z,70.78
2022-11-07T21:27:37.507Z,70.48
2022-11-07T21:30:06.809Z,70.46
2022-11-07T21:32:35.287Z,70.60
2022-11-07T21:35:03.772Z,70.62
2022-11-07T21:37:32.460Z,70.85
2022-11-07T21:40:00.835Z,71.04
2022-11-07T21:42:28.992Z,70.99
2022-11-07T21:44:57.494Z,70.76
2022-11-07T21:47:26.178Z,70.52
2022-11-07T21:49:54.556Z,70.20
2022-11-07T21:52:23.038Z,70.40
2022-11-07T21:54:51.930Z,70.44
2022-11-07T21:57:20.207Z,70.28
2022-11-07T21:59:48.396Z,70.06
2022-11-07T22:02:17.329Z,70.08
2022-11-07T22:04:45.961Z,70.11
2022-11-07T22:07:14.241Z,70.31
2022-11-07T22:09:42.924Z,70.55
2022-11-07T22:12:11.586Z,70.43
2022-11-07T22:14:40.092Z,70.02
2022-11-07T22:17:08.825Z,69.64
2022-11-07T22:19:37.260Z,69.13
2022-11-07T22:22:05.742Z,69.26
2022-11-07T22:24:34.430Z,69.46
2022-11-07T22:27:02.706Z,70.45
2022-11-07T22:29:31.188Z,70.16
2022-11-07T22:32:03.155Z,70.87
2022-11-07T22:34:31.697Z,71.71
2022-11-07T22:37:00.013Z,72.08
2022-11-07T22:39:28.907Z,72.30
2022-11-07T22:41:57.181Z,72.26
2022-11-07T22:44:26.183Z,72.16
2022-11-07T22:46:54.758Z,71.94
2022-11-07T22:49:23.035Z,71.13
2022-11-07T22:51:51.723Z,71.44
2022-11-07T22:54:20.613Z,72.10
2022-11-07T22:56:49.044Z,74.31
2022-11-07T22:59:17.475Z,73.60
2022-11-07T23:01:46.093Z,72.58
2022-11-07T23:04:15.769Z,71.97
2022-11-07T23:06:45.018Z,72.06
2022-11-07T23:09:16.904Z,72.76
2022-11-07T23:11:47.464Z,72.32
2022-11-07T23:14:18.719Z,72.23
2022-11-07T23:16:48.567Z,72.06
2022-11-07T23:19:18.030Z,72.01
2022-11-07T23:21:46.588Z,72.18
2022-11-07T23:24:15.304Z,72.57
2022-11-07T23:26:43.678Z,72.63
2022-11-07T23:29:14.064Z,72.87
2022-11-07T23:31:43.816Z,72.64
2022-11-07T23:34:12.711Z,72.88
2022-11-07T23:36:44.733Z,72.52
2022-11-07T23:39:17.577Z,73.12
2022-11-07T23:41:46.507Z,73.52
2022-11-07T23:44:15.415Z,73.78
2022-11-07T23:47:02.976Z,73.67
2022-11-07T23:49:55.002Z,73.20
2022-11-07T23:52:23.486Z,73.22
2022-11-07T23:55:10.707Z,74.72
2022-11-07T23:57:57.931Z,73.61
